Time;durP1;ratioP1;P1;durP2;ratioP2;P2;SDS_P1;SDS_P2;PMS_P1;PMS_P2;Temp;Humidity;BMP_temperature;BMP_pressure;BME280_temperature;BME280_humidity;BME280_pressure;Samples;Min_cycle;Max_cycle;Signal;HPM_P1;HPM_P2
2022/06/05 00:00:33;;;;;;;11.32;8.13;;;12.40;99.90;;;;;;5015994;28;20051;-75
2022/06/05 00:03:30;;;;;;;11.60;8.40;;;12.30;99.90;;;;;;5015946;28;20053;-75
2022/06/05 00:06:07;;;;;;;14.40;8.93;;;12.30;99.90;;;;;;5033093;28;20394;-75
2022/06/05 00:08:57;;;;;;;10.52;8.13;;;12.20;99.90;;;;;;5015968;28;20065;-74
2022/06/05 00:11:23;;;;;;;12.30;8.25;;;12.30;99.90;;;;;;5032914;28;20041;-73
2022/06/05 00:13:55;;;;;;;13.85;8.70;;;12.30;99.90;;;;;;5032226;28;20033;-74
2022/06/05 00:16:24;;;;;;;11.57;8.60;;;12.10;99.90;;;;;;5015554;28;20120;-73
2022/06/05 00:18:50;;;;;;;12.00;8.65;;;12.20;99.90;;;;;;5032049;28;20128;-74
2022/06/05 00:21:17;;;;;;;13.07;8.73;;;12.30;99.90;;;;;;5032843;28;20038;-74
2022/06/05 00:23:42;;;;;;;14.20;8.57;;;12.20;99.90;;;;;;5031801;28;20502;-73
2022/06/05 00:26:19;;;;;;;15.02;8.75;;;12.30;99.90;;;;;;5032634;28;20052;-74
2022/06/05 00:29:02;;;;;;;11.52;8.20;;;12.10;99.90;;;;;;5015186;28;20120;-74
2022/06/05 00:31:31;;;;;;;16.58;9.27;;;12.10;99.90;;;;;;5032229;28;20056;-74
2022/06/05 00:33:57;;;;;;;14.13;8.20;;;12.10;99.90;;;;;;5031760;28;20104;-74
2022/06/05 00:36:32;;;;;;;12.48;8.75;;;12.10;99.90;;;;;;5032460;28;20449;-74
2022/06/05 00:39:12;;;;;;;11.98;8.25;;;12.10;99.90;;;;;;5014978;28;20064;-74
2022/06/05 00:41:58;;;;;;;11.38;8.00;;;12.10;99.90;;;;;;5029935;28;20136;-74
2022/06/05 00:44:29;;;;;;;12.18;8.27;;;12.20;99.90;;;;;;5047865;28;20534;-73
2022/06/05 00:46:55;;;;;;;14.05;8.23;;;12.30;99.90;;;;;;5014588;28;20037;-73
2022/06/05 00:49:24;;;;;;;15.00;8.55;;;12.10;99.90;;;;;;5014916;28;20034;-74
2022/06/05 00:51:50;;;;;;;15.38;8.55;;;12.00;99.90;;;;;;5032211;28;20040;-74
2022/06/05 00:54:16;;;;;;;13.68;9.30;;;12.10;99.90;;;;;;5031800;28;20033;-72
2022/06/05 00:56:42;;;;;;;13.35;8.57;;;12.00;99.90;;;;;;5032217;28;20478;-73
2022/06/05 00:59:09;;;;;;;15.27;8.00;;;12.00;99.90;;;;;;5031423;28;20041;-72
2022/06/05 01:01:35;;;;;;;12.85;8.40;;;12.10;99.90;;;;;;5029811;28;20084;-73
2022/06/05 01:04:01;;;;;;;11.85;8.25;;;12.00;99.90;;;;;;5031408;28;20068;-72
2022/06/05 01:06:29;;;;;;;13.52;8.82;;;12.20;99.90;;;;;;5013893;28;20112;-73
2022/06/05 01:08:54;;;;;;;12.90;8.23;;;12.00;99.90;;;;;;5030254;28;20091;-72
2022/06/05 01:11:53;;;;;;;13.82;8.20;;;12.10;99.90;;;;;;5030702;28;20482;-73
2022/06/05 01:14:49;;;;;;;14.10;8.70;;;12.10;99.90;;;;;;5018474;28;20049;-72
2022/06/05 01:17:45;;;;;;;12.55;8.35;;;12.20;99.90;;;;;;5032240;28;20038;-72
2022/06/05 01:20:32;;;;;;;17.45;9.05;;;12.10;99.90;;;;;;5007651;28;20409;-72
2022/06/05 01:23:26;;;;;;;14.15;8.60;;;12.10;99.90;;;;;;5044966;28;20046;-73
2022/06/05 01:26:34;;;;;;;13.55;8.65;;;12.10;99.90;;;;;;5023325;28;20037;-73
2022/06/05 01:29:17;;;;;;;15.05;7.93;;;12.10;99.90;;;;;;5000965;28;20041;-72
2022/06/05 01:31:48;;;;;;;15.95;8.60;;;12.20;99.90;;;;;;5031248;28;20071;-73
2022/06/05 01:34:34;;;;;;;12.40;8.43;;;12.10;99.90;;;;;;5013928;28;20397;-73
2022/06/05 01:37:02;;;;;;;15.20;8.60;;;12.00;99.90;;;;;;5029955;28;20048;-73
2022/06/05 01:39:36;;;;;;;13.18;8.77;;;11.90;99.90;;;;;;5026704;28;20054;-72
2022/06/05 01:42:29;;;;;;;14.75;8.90;;;11.90;99.90;;;;;;5025744;28;20037;-73
2022/06/05 01:45:00;;;;;;;16.92;9.35;;;12.00;99.90;;;;;;5015345;28;20042;-73
2022/06/05 01:47:33;;;;;;;14.25;9.32;;;11.90;99.90;;;;;;5014568;28;20436;-73
2022/06/05 01:50:01;;;;;;;12.80;8.48;;;11.90;99.90;;;;;;5031869;28;20375;-73
2022/06/05 01:53:01;;;;;;;12.00;8.30;;;11.90;99.90;;;;;;5037000;28;20103;-73
2022/06/05 01:56:01;;;;;;;13.35;9.20;;;11.90;99.90;;;;;;5030463;28;20045;-73
2022/06/05 01:58:37;;;;;;;13.82;8.85;;;11.80;99.90;;;;;;5029790;28;20033;-73
2022/06/05 02:01:09;;;;;;;15.13;8.90;;;11.90;99.90;;;;;;5031064;28;20128;-73
2022/06/05 02:03:44;;;;;;;14.43;8.35;;;12.00;99.90;;;;;;5015085;28;20083;-73
2022/06/05 02:06:14;;;;;;;12.38;8.85;;;11.90;99.90;;;;;;5037424;28;20408;-73
2022/06/05 02:09:05;;;;;;;13.85;10.02;;;11.90;99.90;;;;;;5045287;28;20547;-73
2022/06/05 02:11:33;;;;;;;13.75;9.30;;;11.80;99.90;;;;;;5030549;28;20124;-74
2022/06/05 02:14:02;;;;;;;13.77;8.88;;;11.80;99.90;;;;;;5030712;28;20037;-74
2022/06/05 02:16:30;;;;;;;13.55;8.63;;;11.70;99.90;;;;;;5032018;28;20124;-73
2022/06/05 02:18:59;;;;;;;11.90;8.25;;;11.70;99.90;;;;;;5051206;28;20045;-74
2022/06/05 02:21:25;;;;;;;12.60;8.50;;;11.80;99.90;;;;;;5034961;28;20056;-74
2022/06/05 02:23:50;;;;;;;11.93;8.93;;;11.80;99.90;;;;;;5034689;28;20401;-74
2022/06/05 02:26:16;;;;;;;15.00;9.38;;;11.90;99.90;;;;;;5032087;28;20100;-73
2022/06/05 02:28:41;;;;;;;13.65;9.05;;;11.80;99.90;;;;;;5006710;28;20064;-73
2022/06/05 02:31:16;;;;;;;13.52;8.77;;;11.90;99.90;;;;;;5033689;28;20154;-74
2022/06/05 02:33:53;;;;;;;14.80;9.63;;;12.00;99.90;;;;;;5034791;28;20048;-73
2022/06/05 02:36:55;;;;;;;13.88;8.82;;;11.90;99.90;;;;;;5034047;28;20465;-73
2022/06/05 02:39:23;;;;;;;15.50;10.90;;;12.00;99.90;;;;;;5015252;28;20057;-73
2022/06/05 02:42:39;;;;;;;14.85;9.30;;;12.00;99.90;;;;;;5015592;28;20046;-73
2022/06/05 02:45:14;;;;;;;13.50;9.43;;;12.00;99.90;;;;;;5017090;28;20095;-73
2022/06/05 02:48:10;;;;;;;14.88;9.07;;;11.90;99.90;;;;;;5013689;28;20133;-73
2022/06/05 02:50:43;;;;;;;13.38;9.50;;;12.00;99.90;;;;;;5028184;28;20055;-73
2022/06/05 02:53:12;;;;;;;13.30;9.57;;;12.00;99.90;;;;;;5018164;28;20038;-73
2022/06/05 02:55:38;;;;;;;14.88;9.75;;;11.90;99.90;;;;;;5033865;28;20049;-73
2022/06/05 02:58:04;;;;;;;16.63;9.95;;;12.00;99.90;;;;;;5032477;28;20080;-73
2022/06/05 03:00:33;;;;;;;13.32;10.18;;;12.00;99.90;;;;;;5032421;28;20092;-73
2022/06/05 03:05:44;;;;;;;17.52;11.30;;;12.00;99.90;;;;;;5032400;28;20444;-73
2022/06/05 03:08:13;;;;;;;17.70;10.25;;;11.90;99.90;;;;;;5016175;28;20033;-73
2022/06/05 03:10:41;;;;;;;14.48;10.10;;;11.90;99.90;;;;;;5017206;28;20489;-73
2022/06/05 03:13:07;;;;;;;15.40;10.93;;;11.90;99.90;;;;;;5017121;28;20041;-73
2022/06/05 03:15:33;;;;;;;15.20;10.65;;;11.90;99.90;;;;;;5032884;28;20401;-73
2022/06/05 03:17:59;;;;;;;15.15;10.68;;;11.90;99.90;;;;;;5034230;28;20049;-73
2022/06/05 03:20:25;;;;;;;19.10;10.85;;;11.90;99.90;;;;;;5016598;28;20047;-73
2022/06/05 03:22:51;;;;;;;17.10;11.02;;;12.00;99.90;;;;;;5034073;28;20052;-73
2022/06/05 03:25:20;;;;;;;15.35;10.50;;;11.90;99.90;;;;;;5032705;28;20041;-72
2022/06/05 03:27:46;;;;;;;17.38;11.00;;;11.80;99.90;;;;;;5033260;28;20065;-72
2022/06/05 03:30:13;;;;;;;15.98;10.93;;;11.90;99.90;;;;;;5033917;28;20038;-73
2022/06/05 03:32:38;;;;;;;15.40;10.68;;;11.90;99.90;;;;;;5043479;28;20033;-72
2022/06/05 03:35:05;;;;;;;16.50;10.23;;;12.00;99.90;;;;;;5033647;28;20075;-72
2022/06/05 03:37:31;;;;;;;14.63;10.35;;;12.00;99.90;;;;;;5032689;28;20521;-72
2022/06/05 03:39:57;;;;;;;16.50;10.40;;;12.10;99.90;;;;;;5016832;28;20053;-72
2022/06/05 03:42:23;;;;;;;15.18;10.40;;;12.10;99.90;;;;;;5016300;28;20068;-73
2022/06/05 03:44:49;;;;;;;15.38;10.73;;;12.10;99.90;;;;;;5049962;28;20049;-73
2022/06/05 03:47:14;;;;;;;17.58;11.32;;;12.10;99.90;;;;;;5016812;28;20034;-72
2022/06/05 03:49:40;;;;;;;17.65;10.10;;;12.10;99.90;;;;;;5017091;28;20041;-72
2022/06/05 03:52:07;;;;;;;16.38;10.13;;;12.10;99.90;;;;;;5032515;28;20043;-73
2022/06/05 03:54:34;;;;;;;16.95;11.07;;;12.10;99.90;;;;;;5015589;28;20042;-72
2022/06/05 03:57:01;;;;;;;16.45;10.82;;;12.30;99.90;;;;;;5032303;28;20052;-72
2022/06/05 03:59:26;;;;;;;15.55;11.23;;;12.20;99.90;;;;;;5033259;28;20037;-72
2022/06/05 04:01:52;;;;;;;18.05;10.98;;;12.10;99.90;;;;;;5015437;28;20055;-72
2022/06/05 04:04:17;;;;;;;18.98;10.50;;;12.20;99.90;;;;;;5034955;28;20477;-72
2022/06/05 04:06:43;;;;;;;15.85;10.90;;;12.20;99.90;;;;;;5022218;28;20075;-72
2022/06/05 04:09:09;;;;;;;16.65;11.15;;;12.40;99.90;;;;;;5030741;28;20699;-72
2022/06/05 04:11:37;;;;;;;17.45;11.60;;;12.40;99.90;;;;;;5014307;28;20188;-73
2022/06/05 04:14:04;;;;;;;18.98;11.85;;;12.30;99.90;;;;;;5014717;28;20037;-72
2022/06/05 04:16:31;;;;;;;17.35;10.63;;;12.20;99.90;;;;;;5032240;28;20045;-73
2022/06/05 04:18:59;;;;;;;13.90;10.50;;;12.30;99.90;;;;;;5049408;28;20112;-72
2022/06/05 04:21:28;;;;;;;16.05;10.95;;;12.40;99.90;;;;;;5047653;28;20049;-72
2022/06/05 04:23:54;;;;;;;15.63;11.25;;;12.60;99.90;;;;;;5031786;28;20052;-72
2022/06/05 04:26:24;;;;;;;16.67;10.65;;;12.60;99.90;;;;;;5031559;28;20083;-72
2022/06/05 04:28:54;;;;;;;15.43;10.05;;;12.60;99.90;;;;;;5015570;28;20048;-73
2022/06/05 04:31:27;;;;;;;16.23;11.20;;;12.60;99.90;;;;;;5020242;28;20033;-72
2022/06/05 04:33:55;;;;;;;17.15;11.82;;;12.70;99.90;;;;;;5031146;28;20037;-72
2022/06/05 04:36:21;;;;;;;14.73;10.38;;;12.60;99.90;;;;;;5048219;28;20037;-73
2022/06/05 04:38:47;;;;;;;18.23;10.82;;;12.70;99.90;;;;;;5031883;28;20116;-73
2022/06/05 04:41:14;;;;;;;16.58;11.73;;;12.80;99.90;;;;;;5030338;28;20056;-73
2022/06/05 04:43:39;;;;;;;18.00;11.13;;;12.70;99.90;;;;;;5030074;28;20041;-73
2022/06/05 04:46:06;;;;;;;15.23;11.18;;;12.80;99.90;;;;;;5002451;28;20060;-73
2022/06/05 04:48:32;;;;;;;14.65;10.93;;;12.90;99.90;;;;;;5031734;28;20029;-73
2022/06/05 04:50:58;;;;;;;17.10;11.13;;;13.00;99.90;;;;;;5014130;28;20045;-74
2022/06/05 04:53:24;;;;;;;18.98;13.05;;;13.00;99.90;;;;;;5031224;28;20063;-74
2022/06/05 04:55:49;;;;;;;18.50;12.10;;;13.00;99.90;;;;;;5046523;28;20033;-74
2022/06/05 04:58:15;;;;;;;19.98;12.63;;;12.90;99.90;;;;;;5015187;28;20038;-74
2022/06/05 05:00:41;;;;;;;19.30;12.68;;;13.00;99.90;;;;;;5011265;28;20039;-74
2022/06/05 05:03:06;;;;;;;18.42;12.73;;;13.10;99.90;;;;;;5030565;28;20624;-73
2022/06/05 05:05:34;;;;;;;17.00;12.35;;;13.10;99.90;;;;;;5015547;28;20037;-72
2022/06/05 05:07:59;;;;;;;21.38;13.02;;;13.10;99.90;;;;;;5047078;28;20037;-72
2022/06/05 05:10:25;;;;;;;17.83;12.07;;;13.30;99.90;;;;;;5015068;28;20452;-73
2022/06/05 05:12:51;;;;;;;15.65;11.90;;;13.30;99.90;;;;;;5030945;28;20094;-72
2022/06/05 05:15:17;;;;;;;18.00;11.95;;;13.50;99.90;;;;;;5029711;28;20041;-73
2022/06/05 05:17:42;;;;;;;16.85;11.80;;;13.50;99.90;;;;;;5031801;28;20037;-73
2022/06/05 05:20:08;;;;;;;20.90;13.30;;;13.50;99.90;;;;;;5014880;28;20038;-75
2022/06/05 05:22:37;;;;;;;18.02;12.60;;;13.50;99.90;;;;;;5030061;28;20048;-75
2022/06/05 05:25:09;;;;;;;19.08;12.65;;;13.50;99.90;;;;;;5014207;28;20556;-72
2022/06/05 05:27:35;;;;;;;17.85;13.13;;;13.60;99.90;;;;;;5048047;28;20030;-74
2022/06/05 05:30:03;;;;;;;18.13;11.23;;;13.60;99.90;;;;;;5013205;28;20033;-74
2022/06/05 05:32:28;;;;;;;19.38;11.98;;;13.60;99.90;;;;;;5047613;28;20041;-74
2022/06/05 05:34:54;;;;;;;20.67;13.48;;;13.70;99.90;;;;;;5010732;28;20116;-74
2022/06/05 05:37:20;;;;;;;14.88;11.57;;;13.70;99.90;;;;;;5030053;28;20033;-73
2022/06/05 05:42:32;;;;;;;16.15;11.73;;;13.70;99.90;;;;;;5045325;28;20045;-74
2022/06/05 05:44:59;;;;;;;18.13;12.05;;;13.80;99.90;;;;;;5028735;28;20497;-74
2022/06/05 05:47:28;;;;;;;16.88;11.93;;;13.80;99.90;;;;;;5046840;28;20486;-74
2022/06/05 05:49:56;;;;;;;18.55;12.95;;;13.80;99.90;;;;;;5029690;28;20091;-74
2022/06/05 05:52:23;;;;;;;17.65;11.35;;;13.80;99.90;;;;;;5032161;28;20041;-74
2022/06/05 05:54:49;;;;;;;17.05;11.32;;;13.90;99.90;;;;;;5017146;28;20041;-74
2022/06/05 05:57:15;;;;;;;16.67;11.43;;;14.00;99.90;;;;;;5014892;28;20486;-74
2022/06/05 05:59:41;;;;;;;16.92;12.88;;;14.00;99.90;;;;;;5033311;28;20092;-74
2022/06/05 06:02:12;;;;;;;18.33;12.50;;;13.90;99.90;;;;;;5032122;28;20451;-74
2022/06/05 06:04:39;;;;;;;19.75;12.27;;;14.00;99.90;;;;;;5033561;28;20048;-75
2022/06/05 06:07:04;;;;;;;15.63;12.20;;;14.10;99.90;;;;;;5032296;28;20405;-74
2022/06/05 06:09:30;;;;;;;15.90;12.55;;;14.10;99.90;;;;;;5034759;28;20117;-74
2022/06/05 06:11:56;;;;;;;17.90;12.65;;;14.20;99.90;;;;;;5046408;28;20033;-75
2022/06/05 06:14:21;;;;;;;17.25;12.00;;;14.20;99.90;;;;;;5033231;28;20057;-73
2022/06/05 06:16:47;;;;;;;16.20;12.02;;;14.30;99.90;;;;;;5035259;28;20037;-72
2022/06/05 06:19:12;;;;;;;15.82;11.85;;;14.30;99.90;;;;;;5033079;28;20088;-72
2022/06/05 06:21:38;;;;;;;17.63;12.63;;;14.40;99.90;;;;;;5035269;28;20511;-73
2022/06/05 06:24:04;;;;;;;16.58;11.93;;;14.40;99.90;;;;;;5016988;28;20512;-73
2022/06/05 06:26:30;;;;;;;16.15;12.50;;;14.60;99.90;;;;;;5033023;28;20049;-72
2022/06/05 06:28:55;;;;;;;16.98;12.15;;;14.50;99.90;;;;;;5034846;28;20478;-72
2022/06/05 06:31:21;;;;;;;17.23;12.43;;;14.70;99.90;;;;;;5025415;28;20061;-72
2022/06/05 06:33:48;;;;;;;18.92;12.30;;;14.70;99.90;;;;;;5031065;28;20537;-73
2022/06/05 06:36:15;;;;;;;16.23;12.20;;;14.70;99.90;;;;;;5001941;28;20041;-72
2022/06/05 06:38:40;;;;;;;16.38;12.10;;;14.80;99.90;;;;;;5038971;28;20034;-71
2022/06/05 06:41:09;;;;;;;17.65;12.20;;;14.80;99.90;;;;;;5032582;28;20056;-72
2022/06/05 06:43:35;;;;;;;19.25;12.38;;;14.80;99.90;;;;;;5030570;28;20042;-72
2022/06/05 06:46:01;;;;;;;17.00;12.00;;;14.90;99.90;;;;;;5050165;28;20057;-72
2022/06/05 06:48:28;;;;;;;17.90;12.75;;;15.00;99.90;;;;;;5033831;28;20045;-72
2022/06/05 06:50:56;;;;;;;18.70;12.90;;;15.00;99.90;;;;;;5038243;28;20555;-72
2022/06/05 06:53:22;;;;;;;16.40;12.15;;;15.10;99.90;;;;;;5033561;28;20037;-72
2022/06/05 06:55:49;;;;;;;17.10;12.07;;;15.20;99.90;;;;;;5019899;28;20561;-72
2022/06/05 06:58:15;;;;;;;15.02;12.10;;;15.20;99.90;;;;;;5033928;28;20049;-72
2022/06/05 07:00:41;;;;;;;15.60;11.90;;;15.30;99.90;;;;;;5033189;28;20413;-72
2022/06/05 07:03:07;;;;;;;15.10;11.68;;;15.50;99.90;;;;;;5032258;28;20377;-72
2022/06/05 07:05:33;;;;;;;16.10;11.60;;;15.50;99.90;;;;;;5049851;28;20103;-72
2022/06/05 07:07:59;;;;;;;14.48;11.18;;;15.60;99.90;;;;;;5008118;28;20037;-72
2022/06/05 07:10:25;;;;;;;15.95;11.48;;;15.80;99.90;;;;;;5023505;28;20492;-72
2022/06/05 07:12:51;;;;;;;17.58;12.35;;;15.90;99.90;;;;;;5032519;28;20444;-72
2022/06/05 07:15:17;;;;;;;16.67;11.55;;;16.00;99.90;;;;;;5013651;28;20042;-73
2022/06/05 07:17:42;;;;;;;17.33;12.13;;;16.20;99.90;;;;;;5007820;28;20128;-72
2022/06/05 07:20:08;;;;;;;15.27;10.90;;;16.30;99.90;;;;;;5033020;28;20049;-73
2022/06/05 07:22:34;;;;;;;16.42;11.50;;;16.40;99.90;;;;;;5030730;28;20049;-72
2022/06/05 07:25:00;;;;;;;15.70;12.07;;;16.50;99.90;;;;;;5031531;28;20042;-73
2022/06/05 07:27:27;;;;;;;16.33;11.18;;;16.70;99.90;;;;;;5032408;28;20048;-73
2022/06/05 07:29:54;;;;;;;13.85;10.15;;;16.80;99.90;;;;;;5016066;28;20124;-72
2022/06/05 07:32:20;;;;;;;14.00;10.93;;;16.90;99.90;;;;;;5003759;28;20041;-73
2022/06/05 07:34:46;;;;;;;15.68;10.77;;;17.00;99.90;;;;;;5015790;28;20048;-73
2022/06/05 07:37:13;;;;;;;13.52;10.45;;;17.10;99.90;;;;;;5031977;28;20041;-73
2022/06/05 07:39:40;;;;;;;15.05;10.25;;;17.20;99.90;;;;;;5031419;28;20093;-73
2022/06/05 07:42:06;;;;;;;14.73;10.35;;;17.40;99.90;;;;;;5048935;28;20056;-72
2022/06/05 07:44:32;;;;;;;14.35;10.50;;;17.40;99.90;;;;;;5029229;28;20091;-73
2022/06/05 07:46:58;;;;;;;12.85;9.68;;;17.40;99.90;;;;;;5032218;28;20049;-73
2022/06/05 07:49:24;;;;;;;15.15;10.63;;;17.40;99.90;;;;;;5032016;28;20026;-74
2022/06/05 07:54:34;;;;;;;14.18;9.35;;;17.60;99.90;;;;;;5032658;28;20045;-75
2022/06/05 07:57:04;;;;;;;13.57;10.18;;;17.70;99.90;;;;;;5032135;28;20482;-75
2022/06/05 07:59:35;;;;;;;12.00;9.77;;;17.80;99.90;;;;;;5031893;28;20581;-75
2022/06/05 08:02:05;;;;;;;12.90;8.90;;;17.90;99.90;;;;;;5031306;28;20033;-74
2022/06/05 08:04:31;;;;;;;13.13;9.68;;;18.00;99.90;;;;;;5015322;28;20038;-73
2022/06/05 08:06:59;;;;;;;12.27;8.98;;;18.00;99.90;;;;;;5016008;28;20040;-73
2022/06/05 08:09:25;;;;;;;15.98;9.90;;;18.10;99.90;;;;;;5014527;28;20033;-73
2022/06/05 08:11:51;;;;;;;14.43;8.25;;;18.10;99.90;;;;;;5031602;28;20067;-72
2022/06/05 08:14:16;;;;;;;13.18;8.98;;;18.20;99.90;;;;;;5031205;28;20038;-72
2022/06/05 08:16:44;;;;;;;12.02;8.75;;;18.20;99.90;;;;;;5032194;28;20498;-71
2022/06/05 08:19:17;;;;;;;12.30;9.27;;;18.30;99.90;;;;;;5031387;28;20076;-73
2022/06/05 08:21:44;;;;;;;12.10;8.90;;;18.30;99.90;;;;;;5031968;28;20041;-73
2022/06/05 08:24:09;;;;;;;12.13;9.30;;;18.40;99.90;;;;;;5031486;28;20509;-73
2022/06/05 08:26:36;;;;;;;13.18;9.95;;;18.50;99.90;;;;;;5031394;28;20049;-73
2022/06/05 08:29:02;;;;;;;10.82;8.90;;;18.50;99.90;;;;;;5031820;28;20086;-73
2022/06/05 08:31:29;;;;;;;11.60;9.10;;;18.60;99.90;;;;;;5031323;28;20037;-73
2022/06/05 08:33:56;;;;;;;12.02;8.70;;;18.70;99.90;;;;;;5031179;28;20646;-73
2022/06/05 08:36:22;;;;;;;11.65;8.18;;;18.80;99.90;;;;;;5031913;28;20045;-73
2022/06/05 08:41:59;;;;;;;11.52;8.90;;;19.00;99.90;;;;;;5026387;28;20513;-73
2022/06/05 08:44:34;;;;;;;13.05;8.80;;;19.00;99.90;;;;;;5031127;28;20088;-73
2022/06/05 08:47:33;;;;;;;9.90;7.93;;;19.10;99.90;;;;;;5013990;28;20037;-73
2022/06/05 08:50:02;;;;;;;12.07;8.85;;;19.20;99.90;;;;;;5046094;28;20065;-72
2022/06/05 08:52:38;;;;;;;12.18;8.88;;;19.30;99.90;;;;;;5031127;28;20106;-72
2022/06/05 08:55:12;;;;;;;12.80;8.18;;;19.30;99.90;;;;;;5031213;28;20059;-73
2022/06/05 08:57:45;;;;;;;12.02;9.43;;;19.20;99.90;;;;;;5031249;28;20060;-72
2022/06/05 09:00:35;;;;;;;12.10;8.43;;;19.20;99.90;;;;;;5030380;28;20046;-73
2022/06/05 09:03:23;;;;;;;12.55;9.30;;;19.20;99.90;;;;;;5030486;28;20041;-73
2022/06/05 09:05:58;;;;;;;11.23;8.48;;;19.20;99.90;;;;;;5030735;28;20107;-72
2022/06/05 09:08:28;;;;;;;11.85;8.30;;;19.20;99.90;;;;;;5013278;28;20045;-73
2022/06/05 09:10:58;;;;;;;10.57;8.02;;;19.20;99.90;;;;;;5029271;28;20144;-73
2022/06/05 09:13:30;;;;;;;11.15;8.68;;;19.30;99.90;;;;;;5033573;28;20072;-72
2022/06/05 09:16:06;;;;;;;11.23;7.78;;;19.40;99.90;;;;;;5031664;28;20062;-73
2022/06/05 09:18:37;;;;;;;12.15;8.10;;;19.50;99.90;;;;;;5031039;28;20042;-73
2022/06/05 09:21:24;;;;;;;13.60;9.20;;;19.60;99.90;;;;;;5014770;28;20045;-72
2022/06/05 09:24:10;;;;;;;13.40;8.10;;;19.80;99.90;;;;;;5032762;28;20053;-73
2022/06/05 09:26:43;;;;;;;9.85;7.53;;;19.80;99.90;;;;;;5046772;28;20045;-73
2022/06/05 09:29:11;;;;;;;9.73;7.63;;;20.00;99.90;;;;;;5034502;28;20045;-72
2022/06/05 09:32:18;;;;;;;10.68;7.70;;;20.10;99.90;;;;;;5052350;28;20033;-73
2022/06/05 09:35:10;;;;;;;11.10;7.53;;;20.30;99.90;;;;;;5043922;28;20167;-73
2022/06/05 09:37:37;;;;;;;9.45;7.22;;;20.50;99.90;;;;;;5043539;28;20038;-73
2022/06/05 09:40:12;;;;;;;12.32;7.93;;;20.50;99.90;;;;;;5017941;28;20128;-74
2022/06/05 09:42:51;;;;;;;10.27;7.88;;;20.70;99.90;;;;;;5017624;28;20064;-73
2022/06/05 09:45:27;;;;;;;11.23;7.68;;;20.70;99.90;;;;;;5043889;28;20424;-73
2022/06/05 09:48:23;;;;;;;11.27;7.85;;;20.80;99.90;;;;;;5039628;28;20560;-73
2022/06/05 09:50:50;;;;;;;11.43;7.60;;;20.80;99.90;;;;;;5034257;28;20465;-73
2022/06/05 09:53:23;;;;;;;12.85;8.23;;;20.90;99.90;;;;;;5015762;28;20045;-72
2022/06/05 09:56:16;;;;;;;10.25;7.72;;;20.90;99.90;;;;;;5023628;28;20044;-73
2022/06/05 09:59:17;;;;;;;10.95;7.47;;;20.90;99.90;;;;;;5034386;28;20409;-72
2022/06/05 10:01:54;;;;;;;9.40;7.20;;;21.00;99.90;;;;;;5016587;28;20402;-73
2022/06/05 10:04:21;;;;;;;11.65;7.45;;;21.00;99.90;;;;;;5050852;28;20051;-73
2022/06/05 10:06:54;;;;;;;10.82;8.23;;;21.10;99.90;;;;;;5064763;28;20045;-73
2022/06/05 10:09:24;;;;;;;9.68;8.27;;;21.20;99.90;;;;;;5054690;28;20120;-73
2022/06/05 10:11:58;;;;;;;9.95;7.03;;;21.30;99.90;;;;;;5038492;28;20111;-73
2022/06/05 10:14:55;;;;;;;10.15;7.95;;;21.40;99.90;;;;;;5046293;28;20390;-73
2022/06/05 10:17:43;;;;;;;9.98;7.65;;;21.50;99.90;;;;;;5014613;28;20033;-73
2022/06/05 10:20:38;;;;;;;12.02;7.63;;;21.60;99.90;;;;;;5033476;28;20044;-73
2022/06/05 10:23:25;;;;;;;12.95;7.70;;;21.60;99.90;;;;;;5047744;28;20044;-73
2022/06/05 10:26:15;;;;;;;12.30;7.68;;;21.60;99.90;;;;;;5017281;28;20088;-73
2022/06/05 10:28:42;;;;;;;9.63;7.63;;;21.60;99.90;;;;;;5017348;28;20424;-73
2022/06/05 10:31:25;;;;;;;11.15;7.40;;;21.70;99.90;;;;;;5033556;28;20095;-73
2022/06/05 10:34:05;;;;;;;11.20;7.20;;;21.80;99.90;;;;;;5016692;28;20091;-73
2022/06/05 10:36:55;;;;;;;10.18;7.85;;;21.80;99.90;;;;;;5033338;28;20045;-73
2022/06/05 10:39:47;;;;;;;8.93;6.88;;;21.70;99.90;;;;;;5016987;28;20139;-73
2022/06/05 10:42:15;;;;;;;;;;;21.70;99.90;;;;;;5023622;28;20049;-74
2022/06/05 10:45:07;;;;;;;8.85;6.95;;;21.70;99.90;;;;;;5031814;28;19917;-73
2022/06/05 10:47:41;;;;;;;;;;;21.70;99.90;;;;;;5017295;28;20557;-74
2022/06/05 10:50:17;;;;;;;11.40;7.50;;;21.70;99.90;;;;;;5029593;28;19917;-73
2022/06/05 10:53:05;;;;;;;8.95;7.05;;;21.70;99.90;;;;;;5014150;28;20087;-74
2022/06/05 10:56:05;;;;;;;9.45;6.95;;;21.70;99.90;;;;;;5013509;28;20046;-74
2022/06/05 10:58:55;;;;;;;11.45;6.70;;;21.70;99.90;;;;;;5028108;28;20038;-74
2022/06/05 11:01:31;;;;;;;11.45;7.35;;;21.70;99.90;;;;;;5047866;28;20045;-74
2022/06/05 11:04:21;;;;;;;9.07;6.70;;;21.70;99.90;;;;;;5016922;28;20041;-74
2022/06/05 11:07:02;;;;;;;9.73;7.38;;;21.80;99.90;;;;;;5031505;28;20048;-73
2022/06/05 11:09:54;;;;;;;8.57;7.03;;;21.90;99.90;;;;;;5016576;28;20125;-74
2022/06/05 11:15:52;;;;;;;9.82;7.32;;;22.10;99.90;;;;;;5032500;28;20053;-74
2022/06/05 11:18:35;;;;;;;9.52;7.25;;;22.10;99.90;;;;;;5037539;28;20042;-75
2022/06/05 11:21:02;;;;;;;9.18;7.93;;;22.10;99.90;;;;;;5016172;28;20120;-75
2022/06/05 11:23:41;;;;;;;10.50;7.13;;;22.20;99.90;;;;;;5031180;28;20037;-75
2022/06/05 11:26:38;;;;;;;9.73;7.15;;;22.20;99.90;;;;;;5034078;28;20044;-74
2022/06/05 11:29:43;;;;;;;10.75;7.00;;;22.20;99.90;;;;;;4997950;28;20047;-75
2022/06/05 11:32:45;;;;;;;10.82;7.10;;;22.30;99.90;;;;;;5063745;28;20059;-76
2022/06/05 11:35:33;;;;;;;9.30;6.82;;;22.30;99.90;;;;;;5035135;28;20043;-75
2022/06/05 11:38:23;;;;;;;9.73;6.75;;;22.30;99.90;;;;;;5032371;28;20041;-75
2022/06/05 11:40:55;;;;;;;8.00;5.55;;;22.30;99.90;;;;;;5014240;28;20061;-74
2022/06/05 11:43:37;;;;;;;7.93;6.20;;;22.30;99.90;;;;;;5029699;28;20044;-75
2022/06/05 11:46:09;;;;;;;;;;;22.30;99.90;;;;;;5049881;28;20120;-75
2022/06/05 11:48:43;;;;;;;8.57;6.60;;;22.30;99.90;;;;;;5032258;28;19924;-75
2022/06/05 11:51:30;;;;;;;9.43;6.03;;;22.30;99.90;;;;;;5030784;28;20037;-75
2022/06/05 11:54:16;;;;;;;8.98;6.10;;;22.30;99.90;;;;;;5013790;28;20030;-75
2022/06/05 11:56:48;;;;;;;9.52;6.93;;;22.30;99.90;;;;;;5025559;28;20042;-75
2022/06/05 11:59:27;;;;;;;8.68;6.63;;;22.30;99.90;;;;;;5032134;28;20046;-75
2022/06/05 12:02:22;;;;;;;9.10;6.25;;;22.30;99.90;;;;;;5015943;28;20398;-74
2022/06/05 12:05:00;;;;;;;9.07;6.25;;;22.40;99.90;;;;;;5028776;28;20049;-75
2022/06/05 12:07:27;;;;;;;8.68;6.47;;;22.40;99.90;;;;;;5031094;28;20037;-75
2022/06/05 12:10:10;;;;;;;9.18;7.03;;;22.40;99.90;;;;;;5025706;28;20437;-75
2022/06/05 12:12:47;;;;;;;10.07;7.05;;;22.40;99.90;;;;;;5015491;28;20088;-75
2022/06/05 12:15:54;;;;;;;9.18;6.78;;;22.40;99.90;;;;;;5027692;28;20045;-75
2022/06/05 12:18:26;;;;;;;9.32;6.88;;;22.40;99.90;;;;;;5016525;28;20060;-75
2022/06/05 12:21:09;;;;;;;9.25;6.50;;;22.40;99.90;;;;;;5015174;28;20122;-76
2022/06/05 12:23:45;;;;;;;8.90;6.32;;;22.40;99.90;;;;;;5043944;28;20512;-74
2022/06/05 12:26:32;;;;;;;8.98;6.70;;;22.40;99.90;;;;;;5031018;28;20092;-74
2022/06/05 12:29:12;;;;;;;8.00;6.05;;;22.40;99.90;;;;;;5022997;28;20525;-75
2022/06/05 12:31:54;;;;;;;7.75;6.35;;;22.40;99.90;;;;;;5028484;28;20037;-75
2022/06/05 12:34:24;;;;;;;;;;;22.40;99.90;;;;;;5016525;28;20037;-74
2022/06/05 12:37:13;;;;;;;9.30;6.32;;;22.40;99.90;;;;;;5047714;28;19917;-74
2022/06/05 12:39:45;;;;;;;9.27;6.45;;;22.40;99.90;;;;;;5028824;28;20058;-74
2022/06/05 12:42:28;;;;;;;9.35;6.25;;;22.40;99.90;;;;;;5031007;28;20072;-74
2022/06/05 12:44:57;;;;;;;8.60;6.65;;;22.40;99.90;;;;;;5048839;28;20077;-75
2022/06/05 12:47:52;;;;;;;9.68;6.28;;;22.30;99.90;;;;;;5004582;28;20091;-75
2022/06/05 12:50:40;;;;;;;10.13;6.55;;;22.30;99.90;;;;;;5047323;28;20044;-75
2022/06/05 12:53:30;;;;;;;7.78;6.18;;;22.30;99.90;;;;;;5037664;28;20038;-74
2022/06/05 12:56:14;;;;;;;8.40;6.35;;;22.30;99.90;;;;;;5033640;28;21455;-74
2022/06/05 12:58:59;;;;;;;7.65;5.95;;;22.30;99.90;;;;;;5024813;28;20073;-74
2022/06/05 13:01:31;;;;;;;8.02;6.63;;;22.30;99.90;;;;;;5030646;28;20044;-74
2022/06/05 13:04:13;;;;;;;10.65;6.15;;;22.40;99.90;;;;;;5031724;28;20040;-74
2022/06/05 13:07:09;;;;;;;9.90;6.07;;;22.30;99.90;;;;;;5029819;28;20091;-75
2022/06/05 13:09:56;;;;;;;9.40;6.25;;;22.30;99.90;;;;;;5030842;28;20045;-75
2022/06/05 13:12:30;;;;;;;8.55;6.25;;;22.30;99.90;;;;;;5026927;28;20037;-75
2022/06/05 13:15:18;;;;;;;10.27;6.25;;;22.30;99.90;;;;;;5044638;28;20099;-76
2022/06/05 13:18:12;;;;;;;9.20;5.90;;;22.40;99.90;;;;;;5027137;28;20046;-75
2022/06/05 13:20:50;;;;;;;7.47;5.97;;;22.40;99.90;;;;;;5030820;28;20041;-75
2022/06/05 13:23:34;;;;;;;8.85;6.20;;;22.40;99.90;;;;;;5013856;28;20049;-76